createdAt,value
2023-05-05T00:00:23.083Z,100246.48
2023-05-05T00:03:46.109Z,100245.76
2023-05-05T00:06:49.227Z,100244.98
2023-05-05T00:09:51.796Z,100249.22
2023-05-05T00:12:54.513Z,100246.80
2023-05-05T00:15:57.326Z,100245.09
2023-05-05T00:18:59.994Z,100242.55
2023-05-05T00:22:02.657Z,100243.92
2023-05-05T00:25:06.268Z,100238.09
2023-05-05T00:28:09.218Z,100238.76
2023-05-05T00:31:11.857Z,100235.77
2023-05-05T00:34:14.450Z,100228.73
2023-05-05T00:37:17.430Z,100226.65
2023-05-05T00:40:20.093Z,100229.92
2023-05-05T00:43:22.676Z,100231.11
2023-05-05T00:46:28.128Z,100229.95
2023-05-05T00:49:31.430Z,100226.69
2023-05-05T00:52:35.078Z,100222.84
2023-05-05T00:55:37.862Z,100225.34
2023-05-05T00:58:42.128Z,100224.15
2023-05-05T01:01:46.039Z,100219.66
2023-05-05T01:04:49.123Z,100219.50
2023-05-05T01:08:37.400Z,100217.70
2023-05-05T01:12:06.913Z,100216.31
2023-05-05T01:15:30.210Z,100219.24
2023-05-05T01:18:54.053Z,100220.88
2023-05-05T01:22:00.767Z,100215.48
2023-05-05T01:25:27.126Z,100212.64
2023-05-05T01:28:47.994Z,100214.02
2023-05-05T01:31:53.851Z,100214.00
2023-05-05T01:35:02.024Z,100216.96
2023-05-05T01:38:09.622Z,100219.88
2023-05-05T01:41:18.240Z,100218.66
2023-05-05T01:44:21.780Z,100214.79
2023-05-05T01:47:25.239Z,100214.44
2023-05-05T01:50:29.063Z,100219.73
2023-05-05T01:53:32.986Z,100215.89
2023-05-05T01:56:38.891Z,100218.48
2023-05-05T01:59:41.772Z,100219.16
2023-05-05T02:02:47.798Z,100217.23
2023-05-05T02:05:53.167Z,100217.70
2023-05-05T02:08:58.437Z,100219.52
2023-05-05T02:12:02.427Z,100219.23
2023-05-05T02:15:06.204Z,100219.20
2023-05-05T02:18:09.972Z,100215.56
2023-05-05T02:21:14.334Z,100214.25
2023-05-05T02:24:16.856Z,100210.60
2023-05-05T02:27:22.224Z,100212.05
2023-05-05T02:30:26.017Z,100210.32
2023-05-05T02:33:33.326Z,100211.86
2023-05-05T02:36:39.598Z,100211.96
2023-05-05T02:39:47.453Z,100214.42
2023-05-05T02:42:54.582Z,100215.31
2023-05-05T02:45:57.226Z,100220.29
2023-05-05T02:48:59.922Z,100216.77
2023-05-05T02:52:02.786Z,100217.91
2023-05-05T02:55:06.610Z,100214.87
2023-05-05T02:58:24.876Z,100218.04
2023-05-05T03:01:42.528Z,100221.17
2023-05-05T03:05:02.729Z,100222.41
2023-05-05T03:08:18.302Z,100228.80
2023-05-05T03:11:33.174Z,100229.64
2023-05-05T03:14:41.048Z,100234.13
2023-05-05T03:17:45.110Z,100230.23
2023-05-05T03:20:48.655Z,100231.48
2023-05-05T03:23:51.244Z,100230.78
2023-05-05T03:26:54.051Z,100232.33
2023-05-05T03:29:57.150Z,100227.67
2023-05-05T03:32:59.799Z,100225.17
2023-05-05T03:36:02.480Z,100228.89
2023-05-05T03:39:05.033Z,100232.70
2023-05-05T03:42:07.613Z,100234.95
2023-05-05T03:45:10.402Z,100238.70
2023-05-05T03:48:13.149Z,100241.77
2023-05-05T03:51:16.517Z,100243.11
2023-05-05T03:54:19.081Z,100242.15
2023-05-05T03:57:21.952Z,100245.47
2023-05-05T04:00:24.576Z,100244.16
2023-05-05T04:03:27.419Z,100242.55
2023-05-05T04:06:30.155Z,100241.00
2023-05-05T04:09:32.821Z,100240.71
2023-05-05T04:12:35.592Z,100242.69
2023-05-05T04:15:38.814Z,100245.05
2023-05-05T04:18:41.435Z,100247.35
2023-05-05T04:21:44.090Z,100247.73
2023-05-05T04:24:47.374Z,100251.54
2023-05-05T04:27:49.947Z,100249.60
2023-05-05T04:30:52.855Z,100255.10
2023-05-05T04:33:55.571Z,100258.27
2023-05-05T04:36:58.275Z,100258.20
2023-05-05T04:40:00.900Z,100258.99
2023-05-05T04:43:03.399Z,100265.63
2023-05-05T04:46:06.061Z,100270.52
2023-05-05T04:49:09.400Z,100282.34
2023-05-05T04:52:15.881Z,100279.38
2023-05-05T04:55:18.528Z,100280.19
2023-05-05T04:58:21.133Z,100285.48
2023-05-05T05:01:23.773Z,100290.17
2023-05-05T05:04:27.470Z,100294.15
2023-05-05T05:07:30.045Z,100287.34
2023-05-05T05:10:32.639Z,100292.45
2023-05-05T05:13:35.191Z,100296.84
2023-05-05T05:16:37.807Z,100296.53
2023-05-05T05:19:40.427Z,100294.73
2023-05-05T05:22:43.058Z,100295.10
2023-05-05T05:25:46.110Z,100296.35
2023-05-05T05:28:48.952Z,100300.85
2023-05-05T05:31:51.595Z,100304.45
2023-05-05T05:34:54.160Z,100304.30
2023-05-05T05:37:56.692Z,100311.55
2023-05-05T05:40:59.209Z,100310.59
2023-05-05T05:44:01.885Z,100309.15
2023-05-05T05:47:04.495Z,100314.48
2023-05-05T05:50:08.245Z,100317.52
2023-05-05T05:53:10.983Z,100311.45
2023-05-05T05:56:13.668Z,100311.70
2023-05-05T05:59:16.333Z,100308.21
2023-05-05T06:02:19.261Z,100315.19
2023-05-05T06:05:22.027Z,100319.22
2023-05-05T06:08:25.304Z,100322.04
2023-05-05T06:11:27.898Z,100322.46
2023-05-05T06:14:30.671Z,100319.13
2023-05-05T06:17:33.296Z,100320.17
2023-05-05T06:20:36.009Z,100323.73
2023-05-05T06:23:39.058Z,100320.40
2023-05-05T06:26:41.969Z,100315.72
2023-05-05T06:29:44.621Z,100317.55
2023-05-05T06:32:47.205Z,100319.43
2023-05-05T06:35:52.108Z,100322.52
2023-05-05T06:38:54.635Z,100325.45
2023-05-05T06:41:57.232Z,100326.20
2023-05-05T06:44:59.762Z,100327.11
2023-05-05T06:48:02.404Z,100327.60
2023-05-05T06:51:05.127Z,100331.33
2023-05-05T06:54:07.799Z,100327.00
2023-05-05T06:57:10.661Z,100331.40
2023-05-05T07:00:15.075Z,100332.11
2023-05-05T07:03:18.032Z,100332.86
2023-05-05T07:06:21.010Z,100330.73
2023-05-05T07:09:23.573Z,100330.31
2023-05-05T07:12:27.875Z,100327.13
2023-05-05T07:15:30.639Z,100326.90
2023-05-05T07:18:33.206Z,100325.08
2023-05-05T07:21:36.729Z,100327.98
2023-05-05T07:24:39.365Z,100327.14
2023-05-05T07:27:42.039Z,100326.55
2023-05-05T07:30:44.689Z,100321.79
2023-05-05T07:33:47.266Z,100321.26
2023-05-05T07:36:49.917Z,100317.23
2023-05-05T07:39:52.575Z,100320.17
2023-05-05T07:42:55.121Z,100316.21
2023-05-05T07:45:57.771Z,100314.91
2023-05-05T07:49:00.431Z,100314.06
2023-05-05T07:52:03.153Z,100311.03
2023-05-05T07:55:06.329Z,100312.30
2023-05-05T07:58:10.964Z,100317.94
2023-05-05T08:01:13.696Z,100319.60
2023-05-05T08:04:16.288Z,100314.00
2023-05-05T08:07:19.017Z,100317.79
2023-05-05T08:10:24.599Z,100312.08
2023-05-05T08:13:31.292Z,100307.54
2023-05-05T08:16:34.570Z,100304.38
2023-05-05T08:19:37.271Z,100306.40
2023-05-05T08:22:40.832Z,100304.44
2023-05-05T08:25:43.741Z,100306.71
2023-05-05T08:28:46.996Z,100305.88
2023-05-05T08:31:49.753Z,100305.33
2023-05-05T08:34:52.430Z,100306.48
2023-05-05T08:37:56.026Z,100305.63
2023-05-05T08:41:02.058Z,100307.35
2023-05-05T08:44:04.689Z,100301.31
2023-05-05T08:50:14.450Z,100309.71
2023-05-05T08:53:19.863Z,100309.77
2023-05-05T08:56:25.919Z,100311.53
2023-05-05T08:59:31.549Z,100313.61
2023-05-05T09:02:37.267Z,100320.11
2023-05-05T09:05:42.206Z,100314.30
2023-05-05T09:08:45.246Z,100320.64
2023-05-05T09:11:48.448Z,100319.39
2023-05-05T09:14:51.016Z,100319.77
2023-05-05T09:17:56.633Z,100321.56
2023-05-05T09:21:00.345Z,100315.59
2023-05-05T09:24:10.497Z,100327.04
2023-05-05T09:27:22.875Z,100327.72
2023-05-05T09:30:27.200Z,100327.98
2023-05-05T09:33:31.247Z,100327.27
2023-05-05T09:36:44.468Z,100329.13
2023-05-05T09:39:54.593Z,100330.78
2023-05-05T09:43:03.104Z,100326.88
2023-05-05T09:46:07.496Z,100323.45
2023-05-05T09:49:18.372Z,100316.84
2023-05-05T09:52:21.021Z,100323.18
2023-05-05T09:55:24.714Z,100323.39
2023-05-05T09:58:29.741Z,100323.16
2023-05-05T10:01:32.548Z,100319.66
2023-05-05T10:04:36.130Z,100311.42
2023-05-05T10:07:41.191Z,100312.23
2023-05-05T10:10:51.835Z,100310.02
2023-05-05T10:13:54.459Z,100304.51
2023-05-05T10:17:00.932Z,100302.52
2023-05-05T10:20:13.002Z,100300.39
2023-05-05T10:23:20.402Z,100299.36
2023-05-05T10:26:26.854Z,100285.58
2023-05-05T10:29:38.727Z,100290.70
2023-05-05T10:35:53.774Z,100283.95
2023-05-05T10:38:59.608Z,100287.94
2023-05-05T10:42:02.408Z,100279.77
2023-05-05T10:45:08.548Z,100273.03
2023-05-05T10:48:21.469Z,100277.83
2023-05-05T10:51:56.043Z,100276.00
2023-05-05T10:55:36.886Z,100271.02
2023-05-05T10:58:55.483Z,100265.55
2023-05-05T11:02:01.354Z,100263.38
2023-05-05T11:05:15.309Z,100267.05
2023-05-05T11:08:27.453Z,100269.89
2023-05-05T11:12:07.555Z,100267.84
2023-05-05T11:15:22.346Z,100269.29
2023-05-05T11:18:35.997Z,100270.08
2023-05-05T11:22:04.323Z,100264.38
2023-05-05T11:25:45.529Z,100263.74
2023-05-05T11:28:59.883Z,100261.31
2023-05-05T11:32:13.797Z,100246.97
2023-05-05T11:35:16.843Z,100254.44
2023-05-05T11:38:23.338Z,100249.84
2023-05-05T11:41:56.664Z,100247.28
2023-05-05T11:44:59.632Z,100241.35
2023-05-05T11:48:29.726Z,100238.97
2023-05-05T11:51:32.487Z,100246.02
2023-05-05T11:54:36.946Z,100243.16
2023-05-05T11:57:40.067Z,100239.02
2023-05-05T12:00:42.744Z,100239.36
2023-05-05T12:03:45.989Z,100239.42
2023-05-05T12:06:49.165Z,100235.45
2023-05-05T12:09:53.452Z,100230.65
2023-05-05T12:12:56.195Z,100225.57
2023-05-05T12:16:13.222Z,100227.62
2023-05-05T12:19:15.921Z,100218.70
2023-05-05T12:22:24.417Z,100218.06
2023-05-05T12:25:34.869Z,100220.94
2023-05-05T12:28:46.624Z,100221.61
2023-05-05T12:32:03.915Z,100212.66
2023-05-05T12:35:08.173Z,100215.83
2023-05-05T12:38:10.881Z,100211.27
2023-05-05T12:41:18.276Z,100213.45
2023-05-05T12:44:20.938Z,100206.92
2023-05-05T12:47:32.107Z,100204.04
2023-05-05T12:50:34.867Z,100199.95
2023-05-05T12:53:37.533Z,100199.83
2023-05-05T12:56:45.574Z,100206.23
2023-05-05T12:59:48.464Z,100197.14
2023-05-05T13:02:51.394Z,100187.52
2023-05-05T13:05:54.232Z,100184.58
2023-05-05T13:08:57.211Z,100189.12
2023-05-05T13:12:00.170Z,100191.63
2023-05-05T13:15:03.464Z,100188.23
2023-05-05T13:18:06.210Z,100188.08
2023-05-05T13:21:08.921Z,100181.42
2023-05-05T13:24:21.267Z,100178.39
2023-05-05T13:27:31.307Z,100176.97
2023-05-05T13:30:33.846Z,100173.17
2023-05-05T13:33:36.799Z,100165.85
2023-05-05T13:37:11.260Z,100163.23
2023-05-05T13:40:14.057Z,100153.01
2023-05-05T13:43:16.669Z,100150.66
2023-05-05T13:46:20.311Z,100149.73
2023-05-05T13:49:23.071Z,100152.20
2023-05-05T13:52:26.087Z,100146.59
2023-05-05T13:55:29.712Z,100136.27
2023-05-05T13:58:32.299Z,100135.48
2023-05-05T14:01:35.753Z,100135.05
2023-05-05T14:04:38.496Z,100132.94
2023-05-05T14:07:41.259Z,100124.86
2023-05-05T14:10:45.412Z,100127.38
2023-05-05T14:13:49.966Z,100120.65
2023-05-05T14:16:53.001Z,100114.96
2023-05-05T14:19:55.808Z,100110.49
2023-05-05T14:22:58.787Z,100107.86
2023-05-05T14:26:01.487Z,100114.04
2023-05-05T14:29:04.056Z,100113.40
2023-05-05T14:32:06.627Z,100109.42
2023-05-05T14:35:09.397Z,100113.98
2023-05-05T14:38:12.131Z,100109.74
2023-05-05T14:41:14.973Z,100103.77
2023-05-05T14:44:17.743Z,100100.95
2023-05-05T14:47:20.508Z,100106.40
2023-05-05T14:50:23.395Z,100107.80
2023-05-05T14:53:26.825Z,100102.42
2023-05-05T14:56:30.144Z,100107.69
2023-05-05T14:59:32.809Z,100107.61
2023-05-05T15:02:35.447Z,100119.30
2023-05-05T15:05:38.126Z,100114.97
2023-05-05T15:08:40.707Z,100114.65
2023-05-05T15:11:45.114Z,100116.45
2023-05-05T15:14:47.773Z,100113.61
2023-05-05T15:17:50.345Z,100111.20
2023-05-05T15:20:53.014Z,100106.92
2023-05-05T15:23:55.937Z,100102.68
2023-05-05T15:26:58.644Z,100098.20
2023-05-05T15:30:01.415Z,100097.98
2023-05-05T15:33:04.093Z,100094.34
2023-05-05T15:36:07.299Z,100085.81
2023-05-05T15:39:10.015Z,100089.84
2023-05-05T15:42:12.676Z,100089.27
2023-05-05T15:45:16.678Z,100083.77
2023-05-05T15:48:19.748Z,100086.77
2023-05-05T15:51:22.312Z,100088.90
2023-05-05T15:54:25.091Z,100083.47
2023-05-05T15:57:27.696Z,100088.73
2023-05-05T16:00:31.537Z,100077.62
2023-05-05T16:03:34.418Z,100069.08
2023-05-05T16:06:37.175Z,100062.38
2023-05-05T16:09:39.764Z,100059.06
2023-05-05T16:12:42.361Z,100055.46
2023-05-05T16:15:44.977Z,100055.32
2023-05-05T16:18:47.831Z,100054.50
2023-05-05T16:21:50.407Z,100048.48
2023-05-05T16:24:53.164Z,100045.63
2023-05-05T16:27:57.601Z,100049.11
2023-05-05T16:31:03.478Z,100046.04
2023-05-05T16:34:06.582Z,100047.23
2023-05-05T16:37:09.252Z,100041.93
2023-05-05T16:40:12.359Z,100045.41
2023-05-05T16:43:14.987Z,100042.00
2023-05-05T16:46:18.308Z,100040.20
2023-05-05T16:49:21.238Z,100042.01
2023-05-05T16:52:23.800Z,100046.84
2023-05-05T16:55:26.386Z,100044.79
2023-05-05T16:58:29.056Z,100049.19
2023-05-05T17:01:32.181Z,100050.23
2023-05-05T17:04:34.893Z,100057.61
2023-05-05T17:07:37.537Z,100063.47
2023-05-05T17:10:41.515Z,100068.44
2023-05-05T17:13:44.202Z,100066.41
2023-05-05T17:16:50.854Z,100068.86
2023-05-05T17:19:53.621Z,100078.39
2023-05-05T17:22:56.494Z,100080.99
2023-05-05T17:26:06.029Z,100084.63
2023-05-05T17:29:09.276Z,100090.47
2023-05-05T17:32:12.972Z,100087.09
2023-05-05T17:35:15.645Z,100093.45
2023-05-05T17:38:18.166Z,100092.96
2023-05-05T17:41:27.117Z,100104.91
2023-05-05T17:44:31.490Z,100098.69
2023-05-05T17:47:34.107Z,100100.01
2023-05-05T17:50:37.057Z,100100.89
2023-05-05T17:53:39.622Z,100101.79
2023-05-05T17:56:42.385Z,100109.47
2023-05-05T17:59:50.167Z,100108.11
2023-05-05T18:02:52.950Z,100110.41
2023-05-05T18:05:56.318Z,100108.17
2023-05-05T18:08:58.920Z,100114.23
2023-05-05T18:12:05.336Z,100105.10
2023-05-05T18:15:09.335Z,100105.53
2023-05-05T18:18:12.224Z,100108.33
2023-05-05T18:21:14.870Z,100103.96
2023-05-05T18:24:20.449Z,100108.63
2023-05-05T18:27:53.488Z,100114.61
2023-05-05T18:30:56.422Z,100116.27
2023-05-05T18:33:58.982Z,100120.64
2023-05-05T18:37:01.653Z,100123.56
2023-05-05T18:40:04.914Z,100126.05
2023-05-05T18:43:09.848Z,100124.07
2023-05-05T18:46:12.719Z,100122.26
2023-05-05T18:49:23.232Z,100127.30
2023-05-05T18:52:27.563Z,100125.20
2023-05-05T18:55:30.167Z,100118.77
2023-05-05T18:58:32.990Z,100127.05
2023-05-05T19:05:36.121Z,100131.73
2023-05-05T19:08:38.820Z,100128.90
2023-05-05T19:11:42.944Z,100127.49
2023-05-05T19:18:41.252Z,100125.36
2023-05-05T19:21:51.894Z,100129.30
2023-05-05T19:24:54.461Z,100131.75
2023-05-05T19:27:57.023Z,100128.59
2023-05-05T19:31:09.103Z,100129.71
2023-05-05T19:34:11.665Z,100131.03
2023-05-05T19:37:14.305Z,100135.08
2023-05-05T19:40:16.815Z,100134.27
2023-05-05T19:43:19.662Z,100135.47
2023-05-05T19:46:23.892Z,100136.89
2023-05-05T19:53:20.160Z,100133.08
2023-05-05T19:56:23.956Z,100131.70
2023-05-05T20:03:36.841Z,100131.69
2023-05-05T20:06:39.680Z,100124.40
2023-05-05T20:09:42.199Z,100124.12
2023-05-05T20:12:48.973Z,100122.35
2023-05-05T20:15:51.785Z,100122.02
2023-05-05T20:18:54.438Z,100126.02
2023-05-05T20:25:47.368Z,100118.77
2023-05-05T20:28:49.928Z,100110.64
2023-05-05T20:31:52.567Z,100114.34
2023-05-05T20:34:55.535Z,100108.18
2023-05-05T20:41:49.184Z,100090.57
2023-05-05T20:44:51.733Z,100093.46
2023-05-05T20:51:48.144Z,100082.52
2023-05-05T20:54:50.713Z,100075.36
2023-05-05T20:57:53.274Z,100071.19
2023-05-05T21:00:56.127Z,100069.61
2023-05-05T21:04:00.429Z,100068.85
2023-05-05T21:07:03.079Z,100066.46
2023-05-05T21:10:06.330Z,100068.66
2023-05-05T21:13:08.983Z,100063.84
2023-05-05T21:16:19.540Z,100069.49
2023-05-05T21:19:22.295Z,100065.31
2023-05-05T21:28:37.790Z,100060.23
2023-05-05T21:35:19.172Z,100048.43
2023-05-05T21:38:32.079Z,100047.33
2023-05-05T21:42:30.080Z,100044.80
2023-05-05T21:45:32.672Z,100043.95
2023-05-05T21:48:35.347Z,100043.77
2023-05-05T21:52:04.974Z,100042.23
2023-05-05T21:55:07.901Z,100038.57
2023-05-05T21:58:10.869Z,100039.62
2023-05-05T22:01:13.482Z,100040.90
2023-05-05T22:04:16.169Z,100039.20
2023-05-05T22:07:19.151Z,100043.98
2023-05-05T22:10:21.734Z,100043.60
2023-05-05T22:13:24.396Z,100041.09
2023-05-05T22:16:29.371Z,100043.00
2023-05-05T22:19:32.053Z,100039.64
2023-05-05T22:22:34.819Z,100041.73
2023-05-05T22:25:37.410Z,100045.73
2023-05-05T22:28:39.968Z,100046.02
2023-05-05T22:31:42.576Z,100047.69
2023-05-05T22:34:45.118Z,100054.66
2023-05-05T22:38:03.134Z,100043.75
2023-05-05T22:41:06.574Z,100043.00
2023-05-05T22:44:09.099Z,100038.45
2023-05-05T22:47:11.703Z,100031.19
2023-05-05T22:50:14.586Z,100032.18
2023-05-05T22:53:17.342Z,100030.09
2023-05-05T22:56:19.833Z,100028.00
2023-05-05T22:59:22.403Z,100022.60
2023-05-05T23:02:26.767Z,100017.79
2023-05-05T23:05:29.554Z,100015.38
2023-05-05T23:08:32.215Z,100015.19
2023-05-05T23:11:36.109Z,100015.79
2023-05-05T23:14:38.778Z,100021.79
2023-05-05T23:17:41.407Z,100024.88
2023-05-05T23:20:44.119Z,100026.80
2023-05-05T23:23:46.714Z,100022.61
2023-05-05T23:26:49.304Z,100022.61
2023-05-05T23:29:51.915Z,100024.17
2023-05-05T23:32:54.989Z,100021.58
2023-05-05T23:35:57.644Z,100021.56
2023-05-05T23:39:00.337Z,100018.55
2023-05-05T23:42:02.971Z,100018.04
2023-05-05T23:45:10.293Z,100006.53
2023-05-05T23:48:13.109Z,99998.57
2023-05-05T23:51:15.905Z,99990.75
2023-05-05T23:54:18.748Z,99987.35
2023-05-05T23:57:21.235Z,99988.04
